createdAt,value
2022-09-15T00:01:11.196Z,93908.16
2022-09-15T00:03:38.381Z,93909.69
2022-09-15T00:06:06.045Z,93903.41
2022-09-15T00:08:32.993Z,93910.00
2022-09-15T00:11:20.701Z,93912.31
2022-09-15T00:13:48.153Z,93899.31
2022-09-15T00:16:15.841Z,93896.09
2022-09-15T00:18:43.635Z,93903.63
2022-09-15T00:21:14.080Z,93899.44
2022-09-15T00:23:41.025Z,93890.88
2022-09-15T00:26:10.730Z,93900.66
2022-09-15T00:28:37.835Z,93890.31
2022-09-15T00:31:10.173Z,93887.28
2022-09-15T00:33:37.487Z,93888.22
2022-09-15T00:36:07.271Z,93884.13
2022-09-15T00:38:35.316Z,93893.47
2022-09-15T00:41:02.570Z,93889.34
2022-09-15T00:43:45.325Z,93892.09
2022-09-15T00:46:13.084Z,93887.09
2022-09-15T00:48:45.373Z,93895.63
2022-09-15T00:51:15.524Z,93900.81
2022-09-15T00:53:42.883Z,93893.47
2022-09-15T00:56:12.549Z,93898.69
2022-09-15T00:58:45.393Z,93894.19
2022-09-15T01:01:13.629Z,93887.66
2022-09-15T01:03:40.539Z,93888.22
2022-09-15T01:06:44.480Z,93885.56
2022-09-15T01:09:23.810Z,93891.41
2022-09-15T01:11:51.082Z,93893.19
2022-09-15T01:14:17.730Z,93882.63
2022-09-15T01:16:50.402Z,93879.00
2022-09-15T01:19:23.317Z,93876.25
2022-09-15T01:22:25.925Z,93882.47
2022-09-15T01:25:01.584Z,93881.03
2022-09-15T01:28:16.433Z,93885.41
2022-09-15T01:30:51.131Z,93879.97
2022-09-15T01:33:32.264Z,93886.59
2022-09-15T01:36:15.159Z,93896.41
2022-09-15T01:38:54.037Z,93873.72
2022-09-15T01:41:26.569Z,93875.94
2022-09-15T01:44:10.112Z,93872.19
2022-09-15T01:46:44.950Z,93883.75
2022-09-15T01:49:15.722Z,93886.59
2022-09-15T01:51:43.964Z,93881.28
2022-09-15T01:54:11.385Z,93878.28
2022-09-15T01:56:39.281Z,93879.78
2022-09-15T01:59:06.086Z,93882.06
2022-09-15T02:01:40.699Z,93881.22
2022-09-15T02:04:18.010Z,93876.47
2022-09-15T02:06:55.432Z,93882.47
2022-09-15T02:09:27.337Z,93890.38
2022-09-15T02:12:21.103Z,93870.19
2022-09-15T02:14:52.803Z,93873.50
2022-09-15T02:17:21.678Z,93873.50
2022-09-15T02:19:57.024Z,93866.84
2022-09-15T02:22:30.841Z,93866.47
2022-09-15T02:25:00.051Z,93858.44
2022-09-15T02:27:30.268Z,93868.50
2022-09-15T02:30:03.132Z,93878.75
2022-09-15T02:32:31.100Z,93878.28
2022-09-15T02:34:59.136Z,93882.31
2022-09-15T02:37:27.474Z,93879.59
2022-09-15T02:39:59.180Z,93871.84
2022-09-15T02:42:27.956Z,93865.47
2022-09-15T02:44:55.213Z,93873.97
2022-09-15T02:47:22.208Z,93872.56
2022-09-15T02:49:48.850Z,93867.88
2022-09-15T02:52:18.177Z,93856.09
2022-09-15T02:54:44.839Z,93864.66
2022-09-15T02:57:11.546Z,93866.06
2022-09-15T02:59:56.939Z,93859.44
2022-09-15T03:02:25.424Z,93862.09
2022-09-15T03:04:52.276Z,93863.81
2022-09-15T03:07:19.521Z,93871.38
2022-09-15T03:09:46.661Z,93866.19
2022-09-15T03:12:13.807Z,93869.97
2022-09-15T03:14:40.333Z,93870.63
2022-09-15T03:17:06.917Z,93872.19
2022-09-15T03:19:33.437Z,93877.09
2022-09-15T03:21:59.993Z,93874.56
2022-09-15T03:24:26.723Z,93870.66
2022-09-15T03:26:53.467Z,93871.66
2022-09-15T03:29:20.062Z,93874.97
2022-09-15T03:31:46.754Z,93871.78
2022-09-15T03:34:13.293Z,93865.47
2022-09-15T03:36:39.933Z,93858.75
2022-09-15T03:39:06.684Z,93861.75
2022-09-15T03:41:33.275Z,93858.00
2022-09-15T03:43:59.884Z,93852.72
2022-09-15T03:46:26.462Z,93863.91
2022-09-15T03:48:53.049Z,93859.34
2022-09-15T03:51:19.634Z,93862.53
2022-09-15T03:53:46.258Z,93859.72
2022-09-15T03:56:25.837Z,93863.22
2022-09-15T03:58:53.382Z,93857.22
2022-09-15T04:01:21.168Z,93866.75
2022-09-15T04:03:51.061Z,93863.47
2022-09-15T04:06:20.346Z,93869.31
2022-09-15T04:08:47.649Z,93869.31
2022-09-15T04:11:15.232Z,93888.44
2022-09-15T04:13:42.927Z,93863.63
2022-09-15T04:16:13.097Z,93865.69
2022-09-15T04:18:40.193Z,93859.34
2022-09-15T04:21:09.191Z,93855.13
2022-09-15T04:23:35.799Z,93851.28
2022-09-15T04:26:05.610Z,93845.75
2022-09-15T04:28:35.023Z,93846.06
2022-09-15T04:31:10.674Z,93853.47
2022-09-15T04:33:38.853Z,93846.72
2022-09-15T04:36:08.798Z,93841.84
2022-09-15T04:38:35.928Z,93845.28
2022-09-15T04:41:04.080Z,93845.28
2022-09-15T04:43:31.827Z,93852.38
2022-09-15T04:45:58.635Z,93842.69
2022-09-15T04:48:25.934Z,93848.72
2022-09-15T04:50:53.282Z,93845.19
2022-09-15T04:53:20.106Z,93842.28
2022-09-15T04:55:46.766Z,93840.63
2022-09-15T04:58:13.321Z,93836.91
2022-09-15T05:00:43.531Z,93838.56
2022-09-15T05:03:14.134Z,93839.84
2022-09-15T05:05:41.285Z,93840.16
2022-09-15T05:08:08.314Z,93838.34
2022-09-15T05:10:35.096Z,93857.44
2022-09-15T05:13:03.747Z,93846.13
2022-09-15T05:15:30.350Z,93844.41
2022-09-15T05:17:58.194Z,93850.41
2022-09-15T05:20:24.713Z,93844.28
2022-09-15T05:22:51.267Z,93841.94
2022-09-15T05:25:18.454Z,93850.50
2022-09-15T05:27:45.029Z,93854.19
2022-09-15T05:32:58.640Z,93855.34
2022-09-15T05:35:25.684Z,93854.25
2022-09-15T05:37:52.234Z,93861.13
2022-09-15T05:40:21.915Z,93864.03
2022-09-15T05:42:48.500Z,93852.69
2022-09-15T05:45:15.250Z,93859.91
2022-09-15T05:47:41.844Z,93867.88
2022-09-15T05:50:08.765Z,93866.75
2022-09-15T05:52:35.753Z,93872.59
2022-09-15T05:55:02.348Z,93871.13
2022-09-15T05:57:28.899Z,93872.13
2022-09-15T05:59:55.563Z,93877.91
2022-09-15T06:02:22.187Z,93881.56
2022-09-15T06:04:48.771Z,93877.44
2022-09-15T06:07:16.631Z,93873.19
2022-09-15T06:09:43.403Z,93879.16
2022-09-15T06:12:09.994Z,93874.41
2022-09-15T06:14:36.535Z,93874.63
2022-09-15T06:17:03.101Z,93863.38
2022-09-15T06:19:29.686Z,93875.13
2022-09-15T06:21:56.227Z,93880.09
2022-09-15T06:24:22.813Z,93884.44
2022-09-15T06:26:49.474Z,93890.25
2022-09-15T06:29:16.047Z,93885.19
2022-09-15T06:31:42.717Z,93896.34
2022-09-15T06:34:11.305Z,93889.25
2022-09-15T06:36:38.872Z,93887.97
2022-09-15T06:39:05.495Z,93883.00
2022-09-15T06:41:58.471Z,93888.69
2022-09-15T06:44:19.899Z,93883.69
2022-09-15T06:46:46.642Z,93890.56
2022-09-15T06:49:13.228Z,93891.03
2022-09-15T06:51:39.988Z,93893.06
2022-09-15T06:54:06.633Z,93887.66
2022-09-15T06:56:37.878Z,93891.50
2022-09-15T06:59:05.102Z,93883.88
2022-09-15T07:01:32.367Z,93882.28
2022-09-15T07:04:01.317Z,93883.41
2022-09-15T07:06:29.629Z,93901.25
2022-09-15T07:08:57.241Z,93889.94
2022-09-15T07:11:24.420Z,93895.91
2022-09-15T07:13:51.427Z,93899.22
2022-09-15T07:16:19.398Z,93896.91
2022-09-15T07:18:47.259Z,93896.22
2022-09-15T07:21:16.802Z,93909.66
2022-09-15T07:23:43.932Z,93895.91
2022-09-15T07:26:18.281Z,93895.41
2022-09-15T07:28:47.866Z,93898.22
2022-09-15T07:31:17.105Z,93900.72
2022-09-15T07:33:44.532Z,93898.66
2022-09-15T07:36:11.344Z,93901.50
2022-09-15T07:38:47.915Z,93899.13
2022-09-15T07:41:23.073Z,93904.84
2022-09-15T07:43:51.972Z,93903.88
2022-09-15T07:46:19.353Z,93906.16
2022-09-15T07:48:51.232Z,93912.06
2022-09-15T07:51:18.278Z,93918.38
2022-09-15T07:53:46.818Z,93912.91
2022-09-15T07:56:13.467Z,93916.72
2022-09-15T07:58:40.197Z,93909.44
2022-09-15T08:01:11.524Z,93921.88
2022-09-15T08:03:42.893Z,93919.06
2022-09-15T08:06:10.787Z,93915.44
2022-09-15T08:08:41.202Z,93903.72
2022-09-15T08:11:19.280Z,93918.63
2022-09-15T08:13:47.755Z,93917.16
2022-09-15T08:16:17.418Z,93918.22
2022-09-15T08:18:44.558Z,93919.78
2022-09-15T08:21:14.933Z,93924.09
2022-09-15T08:23:41.947Z,93919.03
2022-09-15T08:26:13.798Z,93933.72
2022-09-15T08:28:42.214Z,93924.53
2022-09-15T08:31:11.822Z,93912.47
2022-09-15T08:33:44.578Z,93923.53
2022-09-15T08:36:12.495Z,93920.78
2022-09-15T08:38:40.702Z,93920.97
2022-09-15T08:41:24.819Z,93910.00
2022-09-15T08:44:08.499Z,93919.06
2022-09-15T08:46:41.262Z,93913.25
2022-09-15T08:49:40.992Z,93922.59
2022-09-15T08:52:35.765Z,93919.88
2022-09-15T08:55:11.262Z,93920.88
2022-09-15T08:57:37.909Z,93921.28
2022-09-15T09:00:05.112Z,93924.34
2022-09-15T09:02:44.435Z,93915.56
2022-09-15T09:05:41.970Z,93920.34
2022-09-15T09:08:43.872Z,93914.88
2022-09-15T09:11:36.545Z,93915.59
2022-09-15T09:14:29.388Z,93916.31
2022-09-15T09:16:58.701Z,93910.84
2022-09-15T09:19:50.108Z,93922.63
2022-09-15T09:22:32.403Z,93910.31
2022-09-15T09:25:11.699Z,93920.16
2022-09-15T09:27:48.685Z,93921.94
2022-09-15T09:30:17.799Z,93915.97
2022-09-15T09:32:56.193Z,93925.88
2022-09-15T09:35:25.352Z,93933.31
2022-09-15T09:37:53.481Z,93921.00
2022-09-15T09:40:20.584Z,93925.06
2022-09-15T09:42:47.368Z,93921.56
2022-09-15T09:45:16.281Z,93932.91
2022-09-15T09:47:43.240Z,93938.09
2022-09-15T09:50:43.101Z,93932.78
2022-09-15T09:53:31.243Z,93929.69
2022-09-15T09:56:25.148Z,93934.75
2022-09-15T09:58:52.690Z,93930.69
2022-09-15T10:01:21.600Z,93921.56
2022-09-15T10:03:48.285Z,93952.50
2022-09-15T10:06:18.998Z,93939.34
2022-09-15T10:09:18.521Z,93938.50
2022-09-15T10:11:49.688Z,93938.97
2022-09-15T10:14:39.679Z,93933.47
2022-09-15T10:17:13.221Z,93928.72
2022-09-15T10:19:39.671Z,93929.00
2022-09-15T10:22:06.300Z,93924.94
2022-09-15T10:24:36.059Z,93924.66
2022-09-15T10:27:07.983Z,93919.47
2022-09-15T10:29:39.741Z,93927.06
2022-09-15T10:32:28.981Z,93925.34
2022-09-15T10:35:15.834Z,93916.00
2022-09-15T10:37:45.467Z,93928.59
2022-09-15T10:40:36.652Z,93926.75
2022-09-15T10:43:24.742Z,93943.16
2022-09-15T10:46:12.842Z,93936.28
2022-09-15T10:48:43.898Z,93932.38
2022-09-15T10:51:21.657Z,93914.44
2022-09-15T10:53:57.694Z,93916.94
2022-09-15T10:56:53.634Z,93923.09
2022-09-15T10:59:45.847Z,93907.81
2022-09-15T11:02:33.181Z,93902.34
2022-09-15T11:05:22.521Z,93912.31
2022-09-15T11:08:13.165Z,93908.97
2022-09-15T11:10:50.457Z,93897.75
2022-09-15T11:13:52.435Z,93907.69
2022-09-15T11:16:34.099Z,93903.63
2022-09-15T11:19:19.274Z,93905.31
2022-09-15T11:21:50.387Z,93898.47
2022-09-15T11:24:31.884Z,93909.09
2022-09-15T11:27:41.820Z,93902.50
2022-09-15T11:30:47.528Z,93908.94
2022-09-15T11:33:20.425Z,93904.28
2022-09-15T11:35:53.746Z,93926.31
2022-09-15T11:38:26.616Z,93928.69
2022-09-15T11:41:13.665Z,93926.19
2022-09-15T11:43:53.731Z,93932.09
2022-09-15T11:46:31.939Z,93923.25
2022-09-15T11:49:16.271Z,93928.31
2022-09-15T11:52:22.605Z,93921.28
2022-09-15T11:55:13.133Z,93921.84
2022-09-15T11:57:48.966Z,93915.16
2022-09-15T12:00:16.108Z,93913.56
2022-09-15T12:02:56.678Z,93912.03
2022-09-15T12:05:32.067Z,93903.06
2022-09-15T12:08:04.753Z,93911.50
2022-09-15T12:10:40.342Z,93907.28
2022-09-15T12:13:11.092Z,93903.63
2022-09-15T12:15:38.255Z,93898.78
2022-09-15T12:18:39.270Z,93901.78
2022-09-15T12:21:14.551Z,93900.03
2022-09-15T12:23:46.067Z,93902.44
2022-09-15T12:26:17.543Z,93900.75
2022-09-15T12:28:47.015Z,93898.00
2022-09-15T12:31:28.068Z,93896.47
2022-09-15T12:33:59.210Z,93899.56
2022-09-15T12:36:44.165Z,93885.53
2022-09-15T12:39:41.531Z,93908.09
2022-09-15T12:42:15.058Z,93903.63
2022-09-15T12:44:43.253Z,93892.81
2022-09-15T12:47:24.377Z,93891.41
2022-09-15T12:49:52.903Z,93890.31
2022-09-15T12:52:21.697Z,93896.75
2022-09-15T12:55:00.846Z,93893.69
2022-09-15T12:57:36.554Z,93881.75
2022-09-15T13:00:22.669Z,93887.75
2022-09-15T13:02:52.591Z,93886.88
2022-09-15T13:05:41.425Z,93888.66
2022-09-15T13:08:31.567Z,93883.66
2022-09-15T13:11:23.449Z,93882.78
2022-09-15T13:13:51.960Z,93883.63
2022-09-15T13:16:26.186Z,93886.25
2022-09-15T13:19:11.983Z,93886.97
2022-09-15T13:21:42.302Z,93890.41
2022-09-15T13:24:17.474Z,93883.81
2022-09-15T13:26:47.707Z,93886.59
2022-09-15T13:29:16.673Z,93874.97
2022-09-15T13:31:53.333Z,93880.28
2022-09-15T13:41:05.402Z,93896.31
2022-09-15T13:44:02.450Z,93889.56
2022-09-15T13:46:56.894Z,93892.78
2022-09-15T13:49:26.493Z,93902.88
2022-09-15T13:52:12.707Z,93883.41
2022-09-15T13:55:18.828Z,93898.78
2022-09-15T14:00:53.711Z,93889.66
2022-09-15T14:03:43.119Z,93883.78
2022-09-15T14:06:16.882Z,93887.03
2022-09-15T14:08:47.564Z,93885.81
2022-09-15T14:11:17.128Z,93884.91
2022-09-15T14:13:47.271Z,93896.78
2022-09-15T14:16:30.961Z,93891.94
2022-09-15T14:18:58.554Z,93906.13
2022-09-15T14:21:27.846Z,93908.69
2022-09-15T14:23:58.561Z,93918.78
2022-09-15T14:26:28.449Z,93916.25
2022-09-15T14:28:59.230Z,93904.94
2022-09-15T14:31:34.213Z,93913.16
2022-09-15T14:34:02.651Z,93920.81
2022-09-15T14:36:31.887Z,93928.16
2022-09-15T14:39:17.920Z,93927.47
2022-09-15T14:41:45.465Z,93942.81
2022-09-15T14:45:55.258Z,93941.88
2022-09-15T14:47:19.459Z,93936.03
2022-09-15T14:49:46.230Z,93935.63
2022-09-15T14:52:35.832Z,93933.59
2022-09-15T14:55:06.059Z,93937.22
2022-09-15T14:57:36.854Z,93939.72
2022-09-15T15:00:08.251Z,93947.66
2022-09-15T15:02:59.991Z,93939.97
2022-09-15T15:05:35.494Z,93935.94
2022-09-15T15:08:06.790Z,93930.69
2022-09-15T15:10:36.025Z,93942.47
2022-09-15T15:13:09.114Z,93934.00
2022-09-15T15:15:38.442Z,93936.66
2022-09-15T15:18:31.650Z,93942.13
2022-09-15T15:20:58.976Z,93938.09
2022-09-15T15:23:26.393Z,93935.84
2022-09-15T15:25:53.917Z,93933.88
2022-09-15T15:28:34.534Z,93938.50
2022-09-15T15:31:19.412Z,93946.19
2022-09-15T15:33:59.348Z,93951.34
2022-09-15T15:36:30.209Z,93946.59
2022-09-15T15:39:00.603Z,93939.47
2022-09-15T15:41:28.410Z,93935.44
2022-09-15T15:44:07.702Z,93946.91
2022-09-15T15:46:58.752Z,93958.09
2022-09-15T15:49:27.450Z,93962.94
2022-09-15T15:51:55.465Z,93952.09
2022-09-15T15:54:23.186Z,93955.66
2022-09-15T15:56:50.409Z,93956.00
2022-09-15T15:59:17.478Z,93958.69
2022-09-15T16:01:53.140Z,93971.06
2022-09-15T16:04:20.119Z,93971.59
2022-09-15T16:06:47.633Z,93994.69
2022-09-15T16:09:17.310Z,93998.16
2022-09-15T16:11:43.963Z,94002.25
2022-09-15T16:14:14.326Z,94005.69
2022-09-15T16:16:41.130Z,94018.41
2022-09-15T16:19:08.619Z,94031.63
2022-09-15T16:21:38.714Z,94038.88
2022-09-15T16:24:07.065Z,94033.25
2022-09-15T16:26:35.913Z,94033.91
2022-09-15T16:29:02.641Z,94040.53
2022-09-15T16:31:29.612Z,94048.31
2022-09-15T16:33:56.595Z,94050.59
2022-09-15T16:36:23.248Z,94054.84
2022-09-15T16:38:49.917Z,94062.06
2022-09-15T16:41:19.823Z,94071.69
2022-09-15T16:43:47.357Z,94071.84
2022-09-15T16:46:14.821Z,94069.25
2022-09-15T16:48:42.944Z,94073.69
2022-09-15T16:51:29.972Z,94075.41
2022-09-15T16:53:58.184Z,94087.25
2022-09-15T16:56:24.843Z,94084.94
2022-09-15T16:58:58.754Z,94083.78
2022-09-15T17:01:26.893Z,94085.91
2022-09-15T17:03:53.589Z,94094.28
2022-09-15T17:06:22.126Z,94099.44
2022-09-15T17:08:48.959Z,94106.31
2022-09-15T17:11:18.347Z,94114.97
2022-09-15T17:13:45.589Z,94110.72
2022-09-15T17:16:19.366Z,94111.59
2022-09-15T17:18:47.132Z,94114.47
2022-09-15T17:21:16.035Z,94113.22
2022-09-15T17:23:48.125Z,94112.59
2022-09-15T17:26:20.936Z,94113.81
2022-09-15T17:28:47.945Z,94118.16
2022-09-15T17:31:17.598Z,94123.09
2022-09-15T17:33:44.898Z,94119.22
2022-09-15T17:36:11.684Z,94120.59
2022-09-15T17:38:40.697Z,94132.91
2022-09-15T17:41:13.494Z,94129.09
2022-09-15T17:43:40.032Z,94129.94
2022-09-15T17:46:07.880Z,94130.13
2022-09-15T17:48:36.909Z,94123.75
2022-09-15T17:51:03.431Z,94125.22
2022-09-15T17:53:31.031Z,94123.81
2022-09-15T17:55:57.774Z,94120.94
2022-09-15T17:58:26.639Z,94125.88
2022-09-15T18:00:53.920Z,94125.88
2022-09-15T18:03:28.034Z,94132.59
2022-09-15T18:05:56.565Z,94133.31
2022-09-15T18:08:23.313Z,94134.38
2022-09-15T18:10:50.766Z,94145.56
2022-09-15T18:13:23.587Z,94130.16
2022-09-15T18:15:50.658Z,94138.81
2022-09-15T18:18:20.110Z,94138.81
2022-09-15T18:20:47.399Z,94141.47
2022-09-15T18:23:16.466Z,94140.75
2022-09-15T18:25:44.002Z,94147.84
2022-09-15T18:28:10.830Z,94154.56
2022-09-15T18:30:43.716Z,94155.00
2022-09-15T18:33:21.507Z,94156.75
2022-09-15T18:35:50.272Z,94157.25
2022-09-15T18:38:17.299Z,94164.16
2022-09-15T18:40:55.966Z,94171.94
2022-09-15T18:43:25.180Z,94177.25
2022-09-15T18:45:53.250Z,94185.19
2022-09-15T18:48:19.999Z,94181.97
2022-09-15T18:50:46.661Z,94185.91
2022-09-15T18:53:13.421Z,94176.53
2022-09-15T18:55:41.326Z,94184.16
2022-09-15T18:58:08.252Z,94189.47
2022-09-15T19:00:34.931Z,94192.81
2022-09-15T19:03:03.209Z,94186.63
2022-09-15T19:05:30.364Z,94197.41
2022-09-15T19:07:57.355Z,94192.63
2022-09-15T19:10:25.564Z,94211.69
2022-09-15T19:12:52.366Z,94201.09
2022-09-15T19:15:23.611Z,94204.97
2022-09-15T19:17:51.154Z,94206.97
2022-09-15T19:20:17.815Z,94207.47
2022-09-15T19:22:44.460Z,94207.28
2022-09-15T19:25:11.612Z,94203.94
2022-09-15T19:27:39.892Z,94209.78
2022-09-15T19:30:09.953Z,94208.38
2022-09-15T19:32:42.851Z,94205.53
2022-09-15T19:35:11.288Z,94202.91
2022-09-15T19:37:40.507Z,94204.13
2022-09-15T19:40:09.958Z,94205.38
2022-09-15T19:42:38.612Z,94206.59
2022-09-15T19:45:06.364Z,94214.00
2022-09-15T19:47:32.945Z,94206.59
2022-09-15T19:49:59.580Z,94212.25
2022-09-15T19:52:26.911Z,94209.44
2022-09-15T19:54:53.461Z,94207.16
2022-09-15T19:57:21.181Z,94207.84
2022-09-15T19:59:48.033Z,94208.38
2022-09-15T20:02:14.597Z,94203.63
2022-09-15T20:04:41.145Z,94215.44
2022-09-15T20:07:07.775Z,94212.81
2022-09-15T20:09:34.561Z,94219.38
2022-09-15T20:12:04.027Z,94213.63
2022-09-15T20:14:31.437Z,94217.53
2022-09-15T20:17:01.051Z,94212.63
2022-09-15T20:19:28.301Z,94219.66
2022-09-15T20:21:54.952Z,94222.88
2022-09-15T20:24:22.414Z,94217.91
2022-09-15T20:26:49.521Z,94223.91
2022-09-15T20:29:16.332Z,94215.81
2022-09-15T20:31:43.684Z,94210.84
2022-09-15T20:34:10.499Z,94220.06
2022-09-15T20:36:39.045Z,94235.25
2022-09-15T20:39:10.526Z,94235.25
2022-09-15T20:41:37.530Z,94241.78
2022-09-15T20:44:06.020Z,94240.34
2022-09-15T20:46:33.625Z,94238.25
2022-09-15T20:49:00.432Z,94232.06
2022-09-15T20:51:31.480Z,94245.13
2022-09-15T20:53:59.473Z,94245.13
2022-09-15T20:56:28.649Z,94249.72
2022-09-15T20:58:57.233Z,94248.31
2022-09-15T21:01:28.796Z,94243.53
2022-09-15T21:03:56.099Z,94239.50
2022-09-15T21:06:25.449Z,94243.91
2022-09-15T21:08:53.219Z,94242.50
2022-09-15T21:11:21.753Z,94233.13
2022-09-15T21:13:49.346Z,94237.53
2022-09-15T21:16:18.551Z,94247.44
2022-09-15T21:18:45.531Z,94241.25
2022-09-15T21:21:15.890Z,94249.03
2022-09-15T21:23:46.599Z,94254.84
2022-09-15T21:26:16.210Z,94247.25
2022-09-15T21:28:43.919Z,94258.56
2022-09-15T21:31:16.707Z,94244.94
2022-09-15T21:33:44.523Z,94249.22
2022-09-15T21:36:22.450Z,94248.47
2022-09-15T21:38:50.976Z,94252.38
2022-09-15T21:41:23.416Z,94245.63
2022-09-15T21:43:55.021Z,94246.88
2022-09-15T21:46:24.539Z,94255.53
2022-09-15T21:48:51.899Z,94253.25
2022-09-15T21:51:24.644Z,94252.53
2022-09-15T21:53:53.711Z,94249.53
2022-09-15T21:56:20.964Z,94257.50
2022-09-15T21:58:47.742Z,94251.84
2022-09-15T22:01:18.931Z,94255.53
2022-09-15T22:03:56.958Z,94258.72
2022-09-15T22:06:30.294Z,94253.91
2022-09-15T22:09:00.652Z,94258.34
2022-09-15T22:11:27.660Z,94253.06
2022-09-15T22:13:54.502Z,94255.69
2022-09-15T22:16:23.576Z,94250.94
2022-09-15T22:18:51.284Z,94255.50
2022-09-15T22:21:19.069Z,94249.53
2022-09-15T22:23:46.969Z,94254.13
2022-09-15T22:26:34.884Z,94249.53
2022-09-15T22:29:02.306Z,94239.28
2022-09-15T22:31:29.500Z,94248.63
2022-09-15T22:33:56.500Z,94247.78
2022-09-15T22:36:29.181Z,94251.09
2022-09-15T22:38:57.042Z,94244.59
2022-09-15T22:41:25.873Z,94244.41
2022-09-15T22:43:52.524Z,94243.69
2022-09-15T22:46:19.982Z,94243.69
2022-09-15T22:48:47.162Z,94238.94
2022-09-15T22:51:14.784Z,94233.66
2022-09-15T22:53:42.437Z,94230.25
2022-09-15T22:56:20.706Z,94231.00
2022-09-15T22:58:50.259Z,94233.44
2022-09-15T23:01:22.171Z,94235.38
2022-09-15T23:03:53.487Z,94232.03
2022-09-15T23:06:21.342Z,94223.41
2022-09-15T23:08:53.072Z,94231.34
2022-09-15T23:11:20.415Z,94229.94
2022-09-15T23:13:47.397Z,94223.19
2022-09-15T23:16:17.339Z,94224.97
2022-09-15T23:18:44.770Z,94208.91
2022-09-15T23:21:12.621Z,94212.44
2022-09-15T23:23:41.526Z,94207.13
2022-09-15T23:26:10.400Z,94209.09
2022-09-15T23:28:39.039Z,94207.69
2022-09-15T23:31:06.323Z,94202.91
2022-09-15T23:33:33.095Z,94205.91
2022-09-15T23:36:01.306Z,94200.63
2022-09-15T23:38:28.241Z,94202.03
2022-09-15T23:40:54.917Z,94206.59
2022-09-15T23:43:21.489Z,94206.59
2022-09-15T23:45:48.255Z,94196.56
2022-09-15T23:48:14.900Z,94196.56
2022-09-15T23:50:41.723Z,94199.22
2022-09-15T23:53:08.620Z,94187.94
2022-09-15T23:55:35.273Z,94194.44
2022-09-15T23:58:02.398Z,94196.22
